sensor_id;sensor_type;location;lat;lon;timestamp;pressure;altitude;pressure_sealevel;temperature;humidity
72330;BME280;60660;52.076;5.110;2023-02-28T00:00:01;103287.45;;;-1.46;38.55
72330;BME280;60660;52.076;5.110;2023-02-28T00:02:27;103284.48;;;-2.74;41.88
72330;BME280;60660;52.076;5.110;2023-02-28T00:04:52;103284.83;;;-2.69;42.51
72330;BME280;60660;52.076;5.110;2023-02-28T00:07:18;103281.60;;;-1.95;41.66
72330;BME280;60660;52.076;5.110;2023-02-28T00:09:43;103281.90;;;-1.40;39.41
72330;BME280;60660;52.076;5.110;2023-02-28T00:12:09;103271.64;;;-0.26;37.39
72330;BME280;60660;52.076;5.110;2023-02-28T00:14:35;103272.05;;;-0.44;37.15
72330;BME280;60660;52.076;5.110;2023-02-28T00:17:00;103275.32;;;-1.69;38.42
72330;BME280;60660;52.076;5.110;2023-02-28T00:19:27;103275.98;;;-1.33;39.01
72330;BME280;60660;52.076;5.110;2023-02-28T00:21:52;103278.89;;;-1.92;40.38
72330;BME280;60660;52.076;5.110;2023-02-28T00:24:18;103281.35;;;-2.16;41.56
72330;BME280;60660;52.076;5.110;2023-02-28T00:26:43;103280.03;;;-2.77;42.34
72330;BME280;60660;52.076;5.110;2023-02-28T00:29:09;103284.68;;;-1.51;41.24
72330;BME280;60660;52.076;5.110;2023-02-28T00:31:35;103287.35;;;-2.47;41.46
72330;BME280;60660;52.076;5.110;2023-02-28T00:34:01;103287.22;;;-2.04;40.65
72330;BME280;60660;52.076;5.110;2023-02-28T00:36:26;103280.55;;;-0.27;38.29
72330;BME280;60660;52.076;5.110;2023-02-28T00:38:52;103282.67;;;-0.30;37.03
72330;BME280;60660;52.076;5.110;2023-02-28T00:41:17;103275.69;;;-0.54;37.87
72330;BME280;60660;52.076;5.110;2023-02-28T00:43:43;103275.52;;;-0.26;37.56
72330;BME280;60660;52.076;5.110;2023-02-28T00:46:09;103276.54;;;0.22;36.84
72330;BME280;60660;52.076;5.110;2023-02-28T00:48:34;103278.08;;;-0.81;38.12
72330;BME280;60660;52.076;5.110;2023-02-28T00:51:00;103280.78;;;-0.95;39.47
72330;BME280;60660;52.076;5.110;2023-02-28T00:53:26;103278.30;;;-0.20;37.83
72330;BME280;60660;52.076;5.110;2023-02-28T00:55:52;103278.73;;;-2.06;40.45
72330;BME280;60660;52.076;5.110;2023-02-28T00:58:17;103273.80;;;-2.26;41.44
72330;BME280;60660;52.076;5.110;2023-02-28T01:00:43;103272.68;;;-0.83;39.44
72330;BME280;60660;52.076;5.110;2023-02-28T01:03:08;103273.05;;;0.28;37.70
72330;BME280;60660;52.076;5.110;2023-02-28T01:05:35;103275.04;;;-0.49;37.63
72330;BME280;60660;52.076;5.110;2023-02-28T01:08:00;103275.51;;;-0.89;38.60
72330;BME280;60660;52.076;5.110;2023-02-28T01:10:27;103277.58;;;0.33;37.01
72330;BME280;60660;52.076;5.110;2023-02-28T01:12:51;103279.09;;;2.28;34.03
72330;BME280;60660;52.076;5.110;2023-02-28T01:15:17;103274.14;;;1.04;34.68
72330;BME280;60660;52.076;5.110;2023-02-28T01:17:42;103272.14;;;0.71;35.11
72330;BME280;60660;52.076;5.110;2023-02-28T01:20:09;103271.28;;;-1.10;36.97
72330;BME280;60660;52.076;5.110;2023-02-28T01:22:34;103269.53;;;1.32;34.40
72330;BME280;60660;52.076;5.110;2023-02-28T01:24:59;103272.96;;;0.81;36.20
72330;BME280;60660;52.076;5.110;2023-02-28T01:27:25;103274.14;;;0.24;36.06
72330;BME280;60660;52.076;5.110;2023-02-28T01:29:50;103276.66;;;1.74;34.79
72330;BME280;60660;52.076;5.110;2023-02-28T01:32:16;103272.84;;;0.97;34.81
72330;BME280;60660;52.076;5.110;2023-02-28T01:34:41;103275.22;;;-0.06;36.72
72330;BME280;60660;52.076;5.110;2023-02-28T01:37:07;103269.12;;;-0.50;38.06
72330;BME280;60660;52.076;5.110;2023-02-28T01:39:33;103265.87;;;-0.25;37.49
72330;BME280;60660;52.076;5.110;2023-02-28T01:41:59;103269.51;;;-0.64;37.64
72330;BME280;60660;52.076;5.110;2023-02-28T01:45:31;103269.07;;;3.00;33.03
72330;BME280;60660;52.076;5.110;2023-02-28T01:46:50;103260.88;;;-0.32;36.36
72330;BME280;60660;52.076;5.110;2023-02-28T01:49:16;103259.90;;;1.21;35.06
72330;BME280;60660;52.076;5.110;2023-02-28T01:51:43;103257.59;;;2.34;33.45
72330;BME280;60660;52.076;5.110;2023-02-28T01:54:10;103260.08;;;1.14;35.02
72330;BME280;60660;52.076;5.110;2023-02-28T01:56:34;103262.35;;;1.07;34.51
72330;BME280;60660;52.076;5.110;2023-02-28T01:58:58;103260.38;;;-0.57;36.73
72330;BME280;60660;52.076;5.110;2023-02-28T02:01:26;103256.29;;;0.80;35.18
72330;BME280;60660;52.076;5.110;2023-02-28T02:03:49;103251.69;;;0.66;35.17
72330;BME280;60660;52.076;5.110;2023-02-28T02:06:14;103248.35;;;1.64;34.19
72330;BME280;60660;52.076;5.110;2023-02-28T02:08:40;103248.96;;;0.39;36.20
72330;BME280;60660;52.076;5.110;2023-02-28T02:11:07;103241.53;;;-0.53;37.61
72330;BME280;60660;52.076;5.110;2023-02-28T02:13:45;103238.88;;;-0.98;38.49
72330;BME280;60660;52.076;5.110;2023-02-28T02:16:03;103235.06;;;-0.63;38.26
72330;BME280;60660;52.076;5.110;2023-02-28T02:18:28;103231.92;;;-0.42;38.29
72330;BME280;60660;52.076;5.110;2023-02-28T02:21:19;103229.22;;;-1.77;39.44
72330;BME280;60660;52.076;5.110;2023-02-28T02:24:00;103226.29;;;-0.20;37.69
72330;BME280;60660;52.076;5.110;2023-02-28T02:25:42;103221.36;;;-0.53;37.63
72330;BME280;60660;52.076;5.110;2023-02-28T02:28:17;103225.43;;;0.07;38.12
72330;BME280;60660;52.076;5.110;2023-02-28T02:31:28;103231.24;;;-0.12;37.80
72330;BME280;60660;52.076;5.110;2023-02-28T02:33:08;103235.08;;;-0.65;37.81
72330;BME280;60660;52.076;5.110;2023-02-28T02:35:24;103239.57;;;-2.23;40.69
72330;BME280;60660;52.076;5.110;2023-02-28T02:37:51;103240.50;;;-0.68;40.16
72330;BME280;60660;52.076;5.110;2023-02-28T02:40:15;103241.45;;;0.15;39.03
72330;BME280;60660;52.076;5.110;2023-02-28T02:42:42;103242.08;;;0.49;36.84
72330;BME280;60660;52.076;5.110;2023-02-28T02:45:08;103245.94;;;-0.08;37.04
72330;BME280;60660;52.076;5.110;2023-02-28T02:47:31;103243.52;;;1.06;36.13
72330;BME280;60660;52.076;5.110;2023-02-28T02:49:57;103241.97;;;-0.44;37.70
72330;BME280;60660;52.076;5.110;2023-02-28T02:52:24;103239.74;;;1.82;35.42
72330;BME280;60660;52.076;5.110;2023-02-28T02:54:48;103238.32;;;-0.12;35.78
72330;BME280;60660;52.076;5.110;2023-02-28T02:57:17;103243.20;;;2.81;33.71
72330;BME280;60660;52.076;5.110;2023-02-28T02:59:39;103242.47;;;-0.37;37.18
72330;BME280;60660;52.076;5.110;2023-02-28T03:02:06;103242.82;;;0.85;36.40
72330;BME280;60660;52.076;5.110;2023-02-28T03:04:33;103242.96;;;1.24;35.16
72330;BME280;60660;52.076;5.110;2023-02-28T03:06:54;103242.19;;;0.56;36.45
72330;BME280;60660;52.076;5.110;2023-02-28T03:09:20;103243.12;;;2.18;34.51
72330;BME280;60660;52.076;5.110;2023-02-28T03:11:46;103248.83;;;1.24;34.69
72330;BME280;60660;52.076;5.110;2023-02-28T03:14:27;103245.64;;;0.23;36.37
72330;BME280;60660;52.076;5.110;2023-02-28T03:16:51;103245.58;;;1.20;35.33
72330;BME280;60660;52.076;5.110;2023-02-28T03:19:13;103250.23;;;2.55;33.47
72330;BME280;60660;52.076;5.110;2023-02-28T03:21:34;103244.70;;;1.25;35.12
72330;BME280;60660;52.076;5.110;2023-02-28T03:23:59;103243.68;;;1.08;35.18
72330;BME280;60660;52.076;5.110;2023-02-28T03:26:22;103244.77;;;1.70;34.76
72330;BME280;60660;52.076;5.110;2023-02-28T03:28:51;103243.17;;;0.48;36.02
72330;BME280;60660;52.076;5.110;2023-02-28T03:31:15;103246.04;;;2.37;34.11
72330;BME280;60660;52.076;5.110;2023-02-28T03:33:39;103240.81;;;0.90;35.65
72330;BME280;60660;52.076;5.110;2023-02-28T03:36:05;103241.40;;;0.41;36.31
72330;BME280;60660;52.076;5.110;2023-02-28T03:38:31;103246.21;;;2.45;35.24
72330;BME280;60660;52.076;5.110;2023-02-28T03:40:58;103240.14;;;1.64;35.14
72330;BME280;60660;52.076;5.110;2023-02-28T03:43:23;103242.25;;;1.62;34.71
72330;BME280;60660;52.076;5.110;2023-02-28T03:45:45;103241.03;;;1.38;35.11
72330;BME280;60660;52.076;5.110;2023-02-28T03:48:15;103245.51;;;3.68;32.45
72330;BME280;60660;52.076;5.110;2023-02-28T03:50:37;103243.58;;;3.95;31.77
72330;BME280;60660;52.076;5.110;2023-02-28T03:53:04;103248.61;;;2.65;32.13
72330;BME280;60660;52.076;5.110;2023-02-28T03:55:29;103252.02;;;1.46;33.73
72330;BME280;60660;52.076;5.110;2023-02-28T03:57:57;103248.94;;;2.84;32.94
72330;BME280;60660;52.076;5.110;2023-02-28T04:00:21;103243.08;;;4.81;30.73
72330;BME280;60660;52.076;5.110;2023-02-28T04:02:43;103245.63;;;1.42;33.87
72330;BME280;60660;52.076;5.110;2023-02-28T04:05:09;103247.69;;;3.41;32.46
72330;BME280;60660;52.076;5.110;2023-02-28T04:07:35;103246.00;;;0.59;34.62
72330;BME280;60660;52.076;5.110;2023-02-28T04:10:01;103252.78;;;2.63;33.87
72330;BME280;60660;52.076;5.110;2023-02-28T04:12:26;103250.54;;;-0.07;36.51
72330;BME280;60660;52.076;5.110;2023-02-28T04:14:51;103257.31;;;2.94;33.15
72330;BME280;60660;52.076;5.110;2023-02-28T04:17:17;103255.03;;;0.73;35.28
72330;BME280;60660;52.076;5.110;2023-02-28T04:19:42;103258.78;;;-1.15;38.75
72330;BME280;60660;52.076;5.110;2023-02-28T04:22:09;103255.00;;;1.33;36.03
72330;BME280;60660;52.076;5.110;2023-02-28T04:24:34;103257.94;;;-0.31;38.66
72330;BME280;60660;52.076;5.110;2023-02-28T04:26:59;103258.51;;;0.31;37.52
72330;BME280;60660;52.076;5.110;2023-02-28T04:29:27;103258.06;;;2.66;35.06
72330;BME280;60660;52.076;5.110;2023-02-28T04:31:50;103257.94;;;1.59;35.26
72330;BME280;60660;52.076;5.110;2023-02-28T04:34:16;103258.85;;;-0.47;39.84
72330;BME280;60660;52.076;5.110;2023-02-28T04:36:42;103261.02;;;2.14;36.46
72330;BME280;60660;52.076;5.110;2023-02-28T04:39:08;103264.38;;;2.34;34.75
72330;BME280;60660;52.076;5.110;2023-02-28T04:41:33;103265.65;;;-0.30;37.15
72330;BME280;60660;52.076;5.110;2023-02-28T04:43:59;103264.88;;;-1.05;38.75
72330;BME280;60660;52.076;5.110;2023-02-28T04:46:25;103265.80;;;-1.57;39.77
72330;BME280;60660;52.076;5.110;2023-02-28T04:48:50;103270.20;;;-1.18;39.85
72330;BME280;60660;52.076;5.110;2023-02-28T04:51:17;103274.70;;;-2.32;40.47
72330;BME280;60660;52.076;5.110;2023-02-28T04:53:41;103272.35;;;-1.56;39.73
72330;BME280;60660;52.076;5.110;2023-02-28T04:56:10;103270.54;;;-1.70;36.51
72330;BME280;60660;52.076;5.110;2023-02-28T04:58:32;103273.22;;;-1.96;37.41
72330;BME280;60660;52.076;5.110;2023-02-28T05:01:02;103271.38;;;-0.05;35.36
72330;BME280;60660;52.076;5.110;2023-02-28T05:03:24;103269.72;;;1.78;31.33
72330;BME280;60660;52.076;5.110;2023-02-28T05:05:49;103270.38;;;2.05;30.75
72330;BME280;60660;52.076;5.110;2023-02-28T05:08:15;103271.47;;;1.49;30.82
72330;BME280;60660;52.076;5.110;2023-02-28T05:10:40;103272.83;;;0.05;32.59
72330;BME280;60660;52.076;5.110;2023-02-28T05:13:06;103268.54;;;-0.70;33.19
72330;BME280;60660;52.076;5.110;2023-02-28T05:15:31;103265.36;;;-0.76;33.45
72330;BME280;60660;52.076;5.110;2023-02-28T05:17:57;103269.98;;;2.33;29.93
72330;BME280;60660;52.076;5.110;2023-02-28T05:20:23;103268.91;;;-0.86;31.52
72330;BME280;60660;52.076;5.110;2023-02-28T05:22:49;103269.53;;;-0.07;30.95
72330;BME280;60660;52.076;5.110;2023-02-28T05:25:18;103273.37;;;1.41;29.69
72330;BME280;60660;52.076;5.110;2023-02-28T05:27:40;103277.31;;;1.76;29.21
72330;BME280;60660;52.076;5.110;2023-02-28T05:30:08;103275.04;;;-0.68;30.76
72330;BME280;60660;52.076;5.110;2023-02-28T05:32:31;103275.80;;;1.07;29.75
72330;BME280;60660;52.076;5.110;2023-02-28T05:34:57;103279.31;;;0.07;30.64
72330;BME280;60660;52.076;5.110;2023-02-28T05:37:23;103284.32;;;-1.93;33.91
72330;BME280;60660;52.076;5.110;2023-02-28T05:39:49;103282.62;;;0.32;32.60
72330;BME280;60660;52.076;5.110;2023-02-28T05:42:15;103279.50;;;-1.84;34.39
72330;BME280;60660;52.076;5.110;2023-02-28T05:44:40;103277.49;;;-0.36;33.15
72330;BME280;60660;52.076;5.110;2023-02-28T05:47:06;103283.67;;;-1.44;34.85
72330;BME280;60660;52.076;5.110;2023-02-28T05:49:32;103285.05;;;-1.89;35.66
72330;BME280;60660;52.076;5.110;2023-02-28T05:51:57;103285.31;;;-0.87;35.28
72330;BME280;60660;52.076;5.110;2023-02-28T05:54:23;103286.03;;;-1.64;36.91
72330;BME280;60660;52.076;5.110;2023-02-28T05:56:49;103286.17;;;-0.13;35.25
72330;BME280;60660;52.076;5.110;2023-02-28T05:59:15;103287.25;;;-1.35;37.18
72330;BME280;60660;52.076;5.110;2023-02-28T06:01:42;103287.51;;;-1.98;38.46
72330;BME280;60660;52.076;5.110;2023-02-28T06:04:08;103279.55;;;-0.86;37.84
72330;BME280;60660;52.076;5.110;2023-02-28T06:06:31;103282.33;;;0.62;35.82
72330;BME280;60660;52.076;5.110;2023-02-28T06:08:57;103287.67;;;0.11;37.13
72330;BME280;60660;52.076;5.110;2023-02-28T06:11:23;103285.92;;;-0.33;36.89
72330;BME280;60660;52.076;5.110;2023-02-28T06:13:48;103285.70;;;-0.46;37.49
72330;BME280;60660;52.076;5.110;2023-02-28T06:16:14;103285.62;;;-0.80;37.48
72330;BME280;60660;52.076;5.110;2023-02-28T06:18:40;103286.17;;;-0.19;36.43
72330;BME280;60660;52.076;5.110;2023-02-28T06:21:05;103288.70;;;-1.86;38.90
72330;BME280;60660;52.076;5.110;2023-02-28T06:23:31;103292.54;;;-2.85;41.00
72330;BME280;60660;52.076;5.110;2023-02-28T06:25:57;103284.67;;;-0.38;38.32
72330;BME280;60660;52.076;5.110;2023-02-28T06:28:23;103284.73;;;2.50;34.29
72330;BME280;60660;52.076;5.110;2023-02-28T06:30:49;103285.60;;;2.48;33.33
72330;BME280;60660;52.076;5.110;2023-02-28T06:33:14;103291.47;;;4.00;31.23
72330;BME280;60660;52.076;5.110;2023-02-28T06:35:43;103295.37;;;3.72;30.97
72330;BME280;60660;52.076;5.110;2023-02-28T06:38:06;103293.87;;;3.82;31.08
72330;BME280;60660;52.076;5.110;2023-02-28T06:40:32;103290.41;;;4.51;30.43
72330;BME280;60660;52.076;5.110;2023-02-28T06:42:58;103290.69;;;4.87;29.67
72330;BME280;60660;52.076;5.110;2023-02-28T06:45:23;103289.84;;;5.16;28.99
72330;BME280;60660;52.076;5.110;2023-02-28T06:47:49;103286.53;;;6.22;27.75
72330;BME280;60660;52.076;5.110;2023-02-28T06:50:14;103293.29;;;5.32;28.28
72330;BME280;60660;52.076;5.110;2023-02-28T06:52:40;103289.92;;;7.45;26.90
72330;BME280;60660;52.076;5.110;2023-02-28T06:55:07;103294.67;;;7.96;25.85
72330;BME280;60660;52.076;5.110;2023-02-28T06:57:34;103299.35;;;6.58;26.70
72330;BME280;60660;52.076;5.110;2023-02-28T06:59:58;103295.18;;;7.21;26.45
72330;BME280;60660;52.076;5.110;2023-02-28T07:02:23;103295.67;;;7.96;25.91
72330;BME280;60660;52.076;5.110;2023-02-28T07:04:48;103295.28;;;5.58;27.16
72330;BME280;60660;52.076;5.110;2023-02-28T07:07:15;103289.92;;;6.62;26.84
72330;BME280;60660;52.076;5.110;2023-02-28T07:09:39;103285.13;;;6.41;27.28
72330;BME280;60660;52.076;5.110;2023-02-28T07:12:05;103286.50;;;7.19;26.60
72330;BME280;60660;52.076;5.110;2023-02-28T07:14:30;103289.35;;;4.25;29.02
72330;BME280;60660;52.076;5.110;2023-02-28T07:16:55;103291.82;;;5.10;28.85
72330;BME280;60660;52.076;5.110;2023-02-28T07:19:21;103284.84;;;1.05;33.43
72330;BME280;60660;52.076;5.110;2023-02-28T07:21:47;103291.46;;;1.23;34.51
72330;BME280;60660;52.076;5.110;2023-02-28T07:24:11;103303.79;;;4.03;31.67
72330;BME280;60660;52.076;5.110;2023-02-28T07:26:37;103298.04;;;4.82;29.74
72330;BME280;60660;52.076;5.110;2023-02-28T07:29:03;103292.78;;;6.16;28.41
72330;BME280;60660;52.076;5.110;2023-02-28T07:31:29;103288.83;;;5.15;29.91
72330;BME280;60660;52.076;5.110;2023-02-28T07:33:54;103283.08;;;4.37;29.91
72330;BME280;60660;52.076;5.110;2023-02-28T07:36:22;103284.32;;;3.12;31.36
72330;BME280;60660;52.076;5.110;2023-02-28T07:38:47;103287.97;;;3.51;31.94
72330;BME280;60660;52.076;5.110;2023-02-28T07:41:12;103296.56;;;4.01;31.78
72330;BME280;60660;52.076;5.110;2023-02-28T07:43:36;103297.90;;;3.26;32.70
72330;BME280;60660;52.076;5.110;2023-02-28T07:46:03;103289.27;;;5.07;30.70
72330;BME280;60660;52.076;5.110;2023-02-28T07:48:27;103285.41;;;5.93;28.78
72330;BME280;60660;52.076;5.110;2023-02-28T07:50:55;103292.98;;;3.35;31.39
72330;BME280;60660;52.076;5.110;2023-02-28T07:53:18;103296.21;;;4.40;31.14
72330;BME280;60660;52.076;5.110;2023-02-28T07:55:44;103299.04;;;4.26;31.03
72330;BME280;60660;52.076;5.110;2023-02-28T07:58:09;103304.04;;;4.97;29.77
72330;BME280;60660;52.076;5.110;2023-02-28T08:00:35;103303.73;;;3.05;31.44
72330;BME280;60660;52.076;5.110;2023-02-28T08:03:00;103304.45;;;1.86;33.48
72330;BME280;60660;52.076;5.110;2023-02-28T08:05:26;103300.69;;;2.65;33.09
72330;BME280;60660;52.076;5.110;2023-02-28T08:07:51;103302.57;;;4.38;30.89
72330;BME280;60660;52.076;5.110;2023-02-28T08:10:17;103314.29;;;3.84;31.94
72330;BME280;60660;52.076;5.110;2023-02-28T08:12:43;103309.65;;;3.59;32.10
72330;BME280;60660;52.076;5.110;2023-02-28T08:15:09;103311.00;;;2.69;32.94
72330;BME280;60660;52.076;5.110;2023-02-28T08:17:35;103303.12;;;5.70;30.64
72330;BME280;60660;52.076;5.110;2023-02-28T08:20:00;103313.79;;;3.68;31.77
72330;BME280;60660;52.076;5.110;2023-02-28T08:22:27;103314.34;;;1.92;34.13
72330;BME280;60660;52.076;5.110;2023-02-28T08:24:51;103318.61;;;3.25;33.11
72330;BME280;60660;52.076;5.110;2023-02-28T08:27:16;103323.84;;;1.18;35.92
72330;BME280;60660;52.076;5.110;2023-02-28T08:29:41;103322.55;;;2.03;34.87
72330;BME280;60660;52.076;5.110;2023-02-28T08:32:08;103318.01;;;2.20;35.41
72330;BME280;60660;52.076;5.110;2023-02-28T08:34:32;103320.84;;;1.39;35.97
72330;BME280;60660;52.076;5.110;2023-02-28T08:36:57;103315.72;;;1.27;35.99
72330;BME280;60660;52.076;5.110;2023-02-28T08:39:23;103319.22;;;0.24;37.25
72330;BME280;60660;52.076;5.110;2023-02-28T08:41:49;103323.09;;;0.30;36.89
72330;BME280;60660;52.076;5.110;2023-02-28T08:44:15;103316.43;;;2.88;34.27
72330;BME280;60660;52.076;5.110;2023-02-28T08:46:46;103317.27;;;0.66;35.96
72330;BME280;60660;52.076;5.110;2023-02-28T08:49:05;103320.78;;;0.29;37.55
72330;BME280;60660;52.076;5.110;2023-02-28T08:51:32;103320.96;;;-0.94;37.98
72330;BME280;60660;52.076;5.110;2023-02-28T08:53:58;103319.37;;;0.54;38.06
72330;BME280;60660;52.076;5.110;2023-02-28T08:56:22;103321.18;;;1.65;36.05
72330;BME280;60660;52.076;5.110;2023-02-28T08:58:49;103321.48;;;1.26;35.16
72330;BME280;60660;52.076;5.110;2023-02-28T09:01:16;103320.93;;;0.49;35.38
72330;BME280;60660;52.076;5.110;2023-02-28T09:03:40;103323.05;;;-0.24;36.79
72330;BME280;60660;52.076;5.110;2023-02-28T09:06:05;103318.72;;;1.52;35.33
72330;BME280;60660;52.076;5.110;2023-02-28T09:08:31;103316.02;;;-1.36;36.94
72330;BME280;60660;52.076;5.110;2023-02-28T09:11:01;103315.41;;;-0.96;36.55
72330;BME280;60660;52.076;5.110;2023-02-28T09:13:23;103313.92;;;1.31;33.33
72330;BME280;60660;52.076;5.110;2023-02-28T09:15:49;103324.05;;;3.37;31.98
72330;BME280;60660;52.076;5.110;2023-02-28T09:18:15;103330.04;;;1.32;31.75
72330;BME280;60660;52.076;5.110;2023-02-28T09:20:40;103327.84;;;4.33;30.17
72330;BME280;60660;52.076;5.110;2023-02-28T09:23:05;103333.25;;;3.60;29.80
72330;BME280;60660;52.076;5.110;2023-02-28T09:25:33;103325.63;;;2.39;29.68
72330;BME280;60660;52.076;5.110;2023-02-28T09:27:56;103315.17;;;1.42;30.17
72330;BME280;60660;52.076;5.110;2023-02-28T09:30:22;103325.00;;;4.14;28.94
72330;BME280;60660;52.076;5.110;2023-02-28T09:32:48;103320.09;;;0.39;29.70
72330;BME280;60660;52.076;5.110;2023-02-28T09:35:13;103326.60;;;1.29;31.28
72330;BME280;60660;52.076;5.110;2023-02-28T09:37:39;103330.96;;;1.00;29.36
72330;BME280;60660;52.076;5.110;2023-02-28T09:40:06;103325.69;;;1.58;28.69
72330;BME280;60660;52.076;5.110;2023-02-28T09:43:35;103329.43;;;5.43;27.95
72330;BME280;60660;52.076;5.110;2023-02-28T09:45:41;103334.68;;;2.58;27.09
72330;BME280;60660;52.076;5.110;2023-02-28T09:51:32;103327.67;;;0.12;29.90
72330;BME280;60660;52.076;5.110;2023-02-28T09:54:20;103330.20;;;1.70;27.17
72330;BME280;60660;52.076;5.110;2023-02-28T09:56:18;103327.40;;;0.77;28.30
72330;BME280;60660;52.076;5.110;2023-02-28T09:58:44;103333.80;;;-1.46;32.23
72330;BME280;60660;52.076;5.110;2023-02-28T10:01:12;103332.75;;;-0.10;32.83
72330;BME280;60660;52.076;5.110;2023-02-28T10:03:42;103332.13;;;-1.57;30.22
72330;BME280;60660;52.076;5.110;2023-02-28T10:06:12;103336.99;;;-0.65;33.57
72330;BME280;60660;52.076;5.110;2023-02-28T10:08:31;103335.36;;;0.26;30.56
72330;BME280;60660;52.076;5.110;2023-02-28T10:11:07;103326.40;;;-2.24;31.63
72330;BME280;60660;52.076;5.110;2023-02-28T10:13:27;103326.78;;;-1.62;31.07
72330;BME280;60660;52.076;5.110;2023-02-28T10:15:39;103332.49;;;-0.90;28.99
72330;BME280;60660;52.076;5.110;2023-02-28T10:18:12;103330.38;;;1.13;27.67
72330;BME280;60660;52.076;5.110;2023-02-28T10:20:32;103324.44;;;0.98;27.37
72330;BME280;60660;52.076;5.110;2023-02-28T10:23:05;103322.73;;;1.25;25.36
72330;BME280;60660;52.076;5.110;2023-02-28T10:25:23;103324.07;;;0.77;25.33
72330;BME280;60660;52.076;5.110;2023-02-28T10:27:48;103327.63;;;-2.27;26.57
72330;BME280;60660;52.076;5.110;2023-02-28T10:30:38;103322.17;;;0.10;28.17
72330;BME280;60660;52.076;5.110;2023-02-28T10:32:59;103318.07;;;1.30;26.20
72330;BME280;60660;52.076;5.110;2023-02-28T10:35:28;103314.63;;;1.19;27.37
72330;BME280;60660;52.076;5.110;2023-02-28T10:37:55;103316.62;;;0.57;26.67
72330;BME280;60660;52.076;5.110;2023-02-28T10:40:29;103315.71;;;0.43;25.70
72330;BME280;60660;52.076;5.110;2023-02-28T10:42:42;103315.74;;;-0.39;27.23
72330;BME280;60660;52.076;5.110;2023-02-28T10:45:13;103310.86;;;0.69;26.97
72330;BME280;60660;52.076;5.110;2023-02-28T10:47:33;103310.94;;;1.31;25.57
72330;BME280;60660;52.076;5.110;2023-02-28T10:49:59;103312.88;;;2.56;23.79
72330;BME280;60660;52.076;5.110;2023-02-28T10:52:35;103313.55;;;3.60;21.76
72330;BME280;60660;52.076;5.110;2023-02-28T10:54:49;103305.12;;;5.01;23.87
72330;BME280;60660;52.076;5.110;2023-02-28T10:57:18;103306.16;;;3.33;23.81
72330;BME280;60660;52.076;5.110;2023-02-28T10:59:40;103298.39;;;2.33;23.18
72330;BME280;60660;52.076;5.110;2023-02-28T11:02:30;103298.27;;;3.34;24.07
72330;BME280;60660;52.076;5.110;2023-02-28T11:04:42;103296.16;;;4.62;22.86
72330;BME280;60660;52.076;5.110;2023-02-28T11:06:59;103294.62;;;4.92;21.65
72330;BME280;60660;52.076;5.110;2023-02-28T11:09:27;103286.95;;;4.75;20.39
72330;BME280;60660;52.076;5.110;2023-02-28T11:11:49;103280.77;;;5.97;18.78
72330;BME280;60660;52.076;5.110;2023-02-28T11:14:19;103282.71;;;3.59;22.06
72330;BME280;60660;52.076;5.110;2023-02-28T11:16:37;103281.83;;;5.03;20.99
72330;BME280;60660;52.076;5.110;2023-02-28T11:19:04;103282.47;;;3.76;21.12
72330;BME280;60660;52.076;5.110;2023-02-28T11:21:31;103271.48;;;1.82;22.12
72330;BME280;60660;52.076;5.110;2023-02-28T11:23:58;103273.93;;;2.81;20.70
72330;BME280;60660;52.076;5.110;2023-02-28T11:26:37;103267.46;;;2.85;21.47
72330;BME280;60660;52.076;5.110;2023-02-28T11:28:47;103266.45;;;3.40;21.19
72330;BME280;60660;52.076;5.110;2023-02-28T11:31:18;103262.04;;;1.20;24.25
72330;BME280;60660;52.076;5.110;2023-02-28T11:33:42;103263.90;;;-0.03;25.56
72330;BME280;60660;52.076;5.110;2023-02-28T11:36:03;103266.03;;;-0.58;26.87
72330;BME280;60660;52.076;5.110;2023-02-28T11:38:35;103260.00;;;0.48;25.04
72330;BME280;60660;52.076;5.110;2023-02-28T11:41:12;103259.60;;;0.91;24.30
72330;BME280;60660;52.076;5.110;2023-02-28T11:43:33;103262.47;;;2.70;22.62
72330;BME280;60660;52.076;5.110;2023-02-28T11:46:02;103255.67;;;1.60;23.27
72330;BME280;60660;52.076;5.110;2023-02-28T11:48:25;103252.08;;;2.93;22.57
72330;BME280;60660;52.076;5.110;2023-02-28T11:50:50;103254.12;;;4.87;19.87
72330;BME280;60660;52.076;5.110;2023-02-28T11:53:17;103247.39;;;2.92;21.55
72330;BME280;60660;52.076;5.110;2023-02-28T11:55:35;103249.14;;;2.78;21.41
72330;BME280;60660;52.076;5.110;2023-02-28T11:58:15;103253.16;;;3.87;20.87
72330;BME280;60660;52.076;5.110;2023-02-28T12:00:40;103248.46;;;5.06;21.08
72330;BME280;60660;52.076;5.110;2023-02-28T12:03:07;103244.30;;;4.92;19.56
72330;BME280;60660;52.076;5.110;2023-02-28T12:05:28;103245.66;;;4.95;18.97
72330;BME280;60660;52.076;5.110;2023-02-28T12:08:02;103243.79;;;6.56;19.57
72330;BME280;60660;52.076;5.110;2023-02-28T12:10:21;103243.76;;;5.40;18.78
72330;BME280;60660;52.076;5.110;2023-02-28T12:12:43;103237.86;;;5.35;17.84
72330;BME280;60660;52.076;5.110;2023-02-28T12:15:19;103241.94;;;2.32;21.45
72330;BME280;60660;52.076;5.110;2023-02-28T12:17:38;103237.84;;;2.70;21.56
72330;BME280;60660;52.076;5.110;2023-02-28T12:20:00;103236.20;;;2.34;22.01
72330;BME280;60660;52.076;5.110;2023-02-28T12:22:29;103240.58;;;2.89;21.49
72330;BME280;60660;52.076;5.110;2023-02-28T12:25:08;103241.82;;;3.60;20.32
72330;BME280;60660;52.076;5.110;2023-02-28T12:27:12;103238.83;;;4.55;20.03
72330;BME280;60660;52.076;5.110;2023-02-28T12:29:40;103228.58;;;7.04;16.95
72330;BME280;60660;52.076;5.110;2023-02-28T12:32:04;103231.10;;;8.53;17.36
72330;BME280;60660;52.076;5.110;2023-02-28T12:34:30;103230.70;;;3.41;19.18
72330;BME280;60660;52.076;5.110;2023-02-28T12:36:52;103229.33;;;1.51;22.08
72330;BME280;60660;52.076;5.110;2023-02-28T12:39:19;103222.75;;;2.15;21.03
72330;BME280;60660;52.076;5.110;2023-02-28T12:41:44;103215.95;;;3.75;19.69
72330;BME280;60660;52.076;5.110;2023-02-28T12:44:11;103210.38;;;5.41;19.21
72330;BME280;60660;52.076;5.110;2023-02-28T12:46:35;103204.41;;;4.87;18.45
72330;BME280;60660;52.076;5.110;2023-02-28T12:48:56;103211.36;;;2.78;20.08
72330;BME280;60660;52.076;5.110;2023-02-28T12:51:22;103208.74;;;6.06;18.11